Data for 09/10/2013

Time Sea-Level Adjusted Pressure Absolute Pressure Temperature Relative Humidity Dew Point   
(mb) (inHg) (mb) (inHg) (C) (F) (%) (C) (F)
00:05 1022 30.18 851 25.13 11.7 53 64 5.1 41.2
00:10 1022 30.18 851 25.13 11.7 53 64 5.1 41.1
00:15 1022 30.18 851 25.13 11.7 53.1 64 5.2 41.3
00:20 1022 30.18 851 25.13 11.5 52.8 65 5.2 41.3
00:25 1022 30.18 851 25.13 11.7 53 64 5.1 41.2
00:30 1022 30.18 851 25.13 11.6 52.9 64 5.1 41.2
00:35 1022 30.18 851 25.13 11.6 52.9 64 5.2 41.3
00:40 1022 30.18 851 25.13 11.6 52.8 65 5.2 41.4
00:45 1022 30.18 851 25.13 11.4 52.6 65 5.2 41.4
00:50 1022 30.18 851 25.13 11.4 52.5 65 5.1 41.2
00:55 1022 30.18 851 25.13 11.4 52.6 65 5.1 41.2
01:00 1022 30.18 851 25.13 11.5 52.7 64 5.1 41.1
01:05 1022 30.18 851 25.13 11.5 52.7 65 5.1 41.1
01:10 1022 30.18 851 25.13 11.4 52.5 65 5.1 41.2
01:15 1022 30.18 851 25.13 11.3 52.3 64 4.8 40.7
01:20 1022 30.18 851 25.13 11.5 52.6 64 4.9 40.9
01:25 1022 30.18 851 25.13 11.6 52.8 64 5 40.9
01:30 1022 30.18 851 25.13 11.6 52.8 63 4.9 40.9
01:35 1022 30.18 851 25.13 11.5 52.7 64 4.9 40.8
01:40 1022 30.18 851 25.13 11.6 52.8 63 4.9 40.8
01:45 1022 30.18 851 25.13 11.4 52.6 65 5 41.1
01:50 1022 30.18 851 25.13 11.2 52.2 64 4.7 40.4
01:55 1022 30.18 851 25.13 11.5 52.7 64 4.9 40.8
02:00 1022 30.18 851 25.13 11.5 52.7 64 4.9 40.8
02:05 1022 30.18 851 25.13 11.3 52.3 65 4.9 40.8
02:10 1022 30.18 851 25.13 11 51.8 66 4.9 40.8
02:15 1022 30.18 851 25.13 11 51.8 63 4.4 39.9
02:20 1022 30.18 851 25.13 11.5 52.7 63 4.7 40.5
02:25 1022 30.18 851 25.13 11.5 52.7 63 4.7 40.5
02:30 1022 30.18 851 25.13 11.3 52.4 66 5.1 41.3
02:35 1022 30.18 851 25.13 10.9 51.7 65 4.6 40.3
02:40 1022 30.18 851 25.13 11.1 52 64 4.7 40.5
02:45 1022 30.18 851 25.13 10.9 51.6 65 4.7 40.5
02:50 1022 30.18 851 25.13 10.9 51.7 64 4.5 40.1
02:55 1022 30.18 851 25.13 10.9 51.6 65 4.7 40.4
03:00 1022 30.18 851 25.13 10.7 51.3 65 4.5 40.2
03:05 1022 30.18 851 25.13 10.9 51.6 65 4.6 40.3
03:10 1022 30.18 851 25.13 10.6 51.1 68 5 41
03:15 1022 30.18 851 25.13 9.8 49.7 70 4.7 40.4
03:20 1022 30.18 851 25.13 9.8 49.7 71 4.8 40.6
03:25 1022 30.18 851 25.13 9.9 49.8 68 4.3 39.7
03:30 1022 30.18 851 25.13 10.5 50.8 66 4.4 39.9
03:35 1022 30.18 851 25.13 11.1 51.9 64 4.5 40.1
03:40 1022 30.18 851 25.13 10.9 51.7 65 4.7 40.5
03:45 1022 30.18 851 25.13 10.6 51.2 66 4.6 40.2
03:50 1022 30.18 851 25.13 10.6 51.1 67 4.9 40.8
03:55 1022 30.18 851 25.13 9.8 49.6 72 4.9 40.8
04:00 1022 30.18 851 25.13 9.6 49.2 71 4.7 40.4
04:05 1022 30.18 851 25.13 9.2 48.6 72 4.5 40.1
04:10 1022 30.18 851 25.13 9.6 49.2 70 4.4 39.9
04:15 1022 30.18 851 25.13 10.5 50.8 64 4.1 39.3
04:20 1022 30.18 851 25.13 10.6 51.1 65 4.4 39.9
04:25 1022 30.18 851 25.13 10.4 50.8 67 4.6 40.3
04:30 1022 30.18 851 25.13 10.2 50.4 68 4.6 40.3
04:35 1022 30.18 851 25.13 10 49.9 68 4.4 40
04:40 1022 30.18 851 25.13 9.9 49.9 68 4.3 39.7
04:45 1022 30.18 851 25.13 10.3 50.5 67 4.5 40.1
04:50 1022 30.18 851 25.13 10.6 51.1 65 4.3 39.8
04:55 1022 30.18 851 25.13 11.1 51.9 64 4.5 40.2
05:00 1022 30.18 851 25.13 10.8 51.4 65 4.5 40
05:05 1022 30.18 851 25.13 10.7 51.2 66 4.6 40.4
05:10 1022 30.18 851 25.13 10.4 50.8 66 4.5 40
05:15 1022 30.18 851 25.13 10.4 50.6 67 4.6 40.3
05:20 1022 30.18 851 25.13 9.9 49.8 70 4.6 40.3
05:25 1022 30.18 851 25.13 9.6 49.3 69 4.2 39.5
05:30 1022 30.18 851 25.13 10 50 67 4.2 39.6
05:35 1022 30.18 851 25.13 10.4 50.7 66 4.3 39.7
05:40 1022 30.18 851 25.13 10.6 51.1 65 4.3 39.7
05:45 1022 30.18 851 25.13 10.4 50.7 69 5 41
05:50 1022 30.18 852 25.16 9.6 49.3 71 4.6 40.2
05:55 1022 30.18 852 25.16 9.6 49.4 68 4 39.2
06:00 1022 30.18 852 25.16 10.6 51.1 65 4.4 39.8
06:05 1022 30.18 852 25.16 10.6 51 66 4.5 40.1
06:10 1022 30.18 852 25.16 10.3 50.6 68 4.7 40.4
06:15 1022 30.18 852 25.16 10.1 50.1 67 4.3 39.8
06:20 1022 30.18 852 25.16 10.4 50.7 66 4.3 39.8
06:25 1023 30.21 852 25.16 10.5 50.9 66 4.4 40
06:30 1023 30.21 852 25.16 10.8 51.4 65 4.4 39.9
06:35 1023 30.21 852 25.16 11 51.7 64 4.5 40.1
06:40 1023 30.21 852 25.16 11 51.8 64 4.6 40.3
06:45 1023 30.21 852 25.16 11.1 51.9 64 4.5 40.1
06:50 1023 30.21 852 25.16 11.2 52.1 64 4.5 40.2
06:55 1023 30.21 852 25.16 11.5 52.7 62 4.6 40.3
07:00 1023 30.21 852 25.16 11.8 53.2 61 4.5 40.2
07:05 1023 30.21 852 25.16 11.8 53.2 62 4.9 40.8
07:10 1023 30.21 852 25.16 11.6 52.9 64 5 41
07:15 1023 30.21 852 25.16 11.7 53 63 4.9 40.9
07:20 1023 30.21 852 25.16 11.8 53.3 62 4.9 40.9
07:25 1023 30.21 852 25.16 12.1 53.7 62 5 41
07:30 1023 30.21 852 25.16 12.6 54.7 60 5.1 41.2
07:35 1023 30.21 852 25.16 12.8 55.1 59 5.2 41.3
07:40 1023 30.21 852 25.16 13.2 55.8 58 5.3 41.5
07:45 1023 30.21 852 25.16 13.8 56.8 56 5.2 41.4
07:50 1023 30.21 852 25.16 14 57.1 56 5.3 41.5
07:55 1023 30.21 852 25.16 14.1 57.4 56 5.5 41.9
08:00 1023 30.21 852 25.16 14.4 58 54 5.4 41.7
08:05 1023 30.21 852 25.16 15 59 52 5.4 41.8
08:10 1023 30.21 852 25.16 15.8 60.5 51 5.7 42.2
08:15 1023 30.21 852 25.16 16.2 61.1 50 5.7 42.3
08:20 1023 30.21 852 25.16 15.9 60.7 51 5.8 42.4
08:25 1023 30.21 852 25.16 16.2 61.2 48 5.4 41.8
08:30 1023 30.21 852 25.16 16.4 61.5 48 5.5 42
08:35 1023 30.21 852 25.16 16.7 62.1 47 5.5 41.9
08:40 1023 30.21 852 25.16 17.1 62.7 48 6.1 43.1
08:45 1023 30.21 852 25.16 16.2 61.2 50 6 42.8
08:50 1023 30.21 852 25.16 16.5 61.7 50 6 42.9
08:55 1023 30.21 852 25.16 16.5 61.7 47 5.4 41.6
09:00 1023 30.21 852 25.16 17.5 63.6 46 5.9 42.6
09:05 1023 30.21 852 25.16 17.1 62.7 45 5.3 41.5
09:10 1023 30.21 852 25.16 16.8 62.2 47 5.5 41.8
09:15 1023 30.21 853 25.19 16.7 62.1 47 5.4 41.8
09:20 1023 30.21 853 25.19 17.3 63.1 46 5.7 42.3
09:25 1023 30.21 853 25.19 17.4 63.3 45 5.4 41.8
09:30 1023 30.21 852 25.16 17.6 63.7 45 5.6 42
09:35 1023 30.21 852 25.16 17.4 63.4 46 5.7 42.3
09:40 1023 30.21 852 25.16 17.2 63 44 5.1 41.2
09:45 1023 30.21 852 25.16 18 64.4 43 5.5 41.8
09:50 1023 30.21 852 25.16 18.5 65.3 43 5.8 42.5
09:55 1023 30.21 852 25.16 19.2 66.5 42 6 42.8
10:00 1023 30.21 852 25.16 19.5 67.1 40 5.7 42.3
10:05 1023 30.21 852 25.16 19.8 67.6 39 5.7 42.2
10:10 1023 30.21 852 25.16 20.1 68.1 39 6 42.8
10:15 1023 30.21 852 25.16 20 68 39 6 42.7
10:20 1023 30.21 852 25.16 19.3 66.8 41 5.7 42.3
10:25 1023 30.21 852 25.16 19.8 67.6 40 6 42.8
10:30 1023 30.21 852 25.16 19.9 67.8 39 5.8 42.4
10:35 1023 30.21 852 25.16 20.6 69.1 37 5.5 42
10:40 1023 30.21 852 25.16 20.9 69.6 38 6 42.9
10:45 1023 30.21 852 25.16 21.1 70.1 36 5.8 42.4
10:50 1023 30.21 852 25.16 20.7 69.2 39 6.4 43.5
10:55 1023 30.21 852 25.16 20.9 69.6 38 6.1 43
11:00 1023 30.21 852 25.16 20.8 69.5 38 6.2 43.1
11:05 1023 30.21 852 25.16 19.9 67.7 40 5.8 42.5
11:10 1023 30.21 852 25.16 20.3 68.6 38 5.6 42.1
11:15 1023 30.21 852 25.16 21.5 70.7 37 6.2 43.1
11:20 1023 30.21 852 25.16 21.6 70.9 34 5.3 41.6
11:25 1023 30.21 852 25.16 22.1 71.8 32 4.9 40.9
11:30 1023 30.21 852 25.16 22.3 72.1 34 5.7 42.2
11:35 1023 30.21 852 25.16 22.4 72.3 33 5.7 42.3
11:40 1023 30.21 852 25.16 22.4 72.3 33 5.6 42.1
11:45 1022 30.18 852 25.16 22.3 72.1 34 5.8 42.4
11:50 1022 30.18 852 25.16 21.7 71 33 4.7 40.5
11:55 1022 30.18 852 25.16 22.3 72.2 32 5 40.9
12:00 1022 30.18 851 25.13 22.3 72.2 31 4.8 40.6
12:05 1022 30.18 851 25.13 21.9 71.4 32 4.9 40.8
12:10 1022 30.18 851 25.13 21.9 71.4 31 4.2 39.5
12:15 1022 30.18 851 25.13 21.8 71.2 31 4.1 39.4
12:20 1022 30.18 851 25.13 22.7 72.9 30 4.5 40
12:25 1022 30.18 851 25.13 23 73.4 29 4.3 39.7
12:30 1022 30.18 851 25.13 23.6 74.4 29 4.5 40.1
12:35 1022 30.18 851 25.13 24.4 75.8 28 4.9 40.8
12:40 1022 30.18 851 25.13 23.3 74 29 4.4 39.9
12:45 1022 30.18 851 25.13 23 73.3 28 3.8 38.9
12:50 1022 30.18 851 25.13 22.9 73.1 27 3 37.4
12:55 1022 30.18 851 25.13 23.9 75 27 4.1 39.4
13:00 1022 30.18 851 25.13 23.8 74.8 26 3.2 37.7
13:05 1022 30.18 851 25.13 24.1 75.3 26 3.8 38.8
13:10 1022 30.18 851 25.13 24.7 76.4 25 3.8 38.8
13:15 1022 30.18 851 25.13 24.4 75.9 26 3.9 39
13:20 1022 30.18 851 25.13 23.6 74.6 27 3.7 38.7
13:25 1022 30.18 851 25.13 23.9 75.1 27 3.9 39.1
13:30 1022 30.18 851 25.13 24.1 75.3 26 3.8 38.9
13:35 1022 30.18 851 25.13 24.5 76 25 3.4 38.1
13:40 1021 30.15 851 25.13 24.6 76.2 23 2.3 36.2
13:45 1021 30.15 851 25.13 25.1 77.2 23 2.5 36.5
13:50 1021 30.15 851 25.13 25.3 77.6 23 2.8 37
13:55 1021 30.15 851 25.13 25.1 77.1 24 3.4 38
14:00 1021 30.15 851 25.13 24 75.3 22 1.4 34.5
14:05 1021 30.15 851 25.13 25 77 23 2.6 36.7
14:10 1021 30.15 851 25.13 25.2 77.4 22 2.4 36.3
14:15 1021 30.15 850 25.1 25 77 21 1.6 34.8
14:20 1021 30.15 850 25.1 25.4 77.7 22 2.2 36
14:25 1021 30.15 850 25.1 25.8 78.5 20 1.6 34.9
14:30 1021 30.15 850 25.1 26.1 78.9 21 2.4 36.3
14:35 1021 30.15 850 25.1 25.9 78.6 20 1.3 34.4
14:40 1021 30.15 850 25.1 25.3 77.6 21 1.8 35.2
14:45 1021 30.15 850 25.1 25.5 77.8 21 1.5 34.8
14:50 1021 30.15 850 25.1 26.2 79.1 20 1.5 34.7
14:55 1021 30.15 850 25.1 26.1 79 20 1.7 35
15:00 1021 30.15 850 25.1 26.2 79.2 21 2.7 36.8
15:05 1021 30.15 850 25.1 26 78.9 20 1.9 35.4
15:10 1021 30.15 850 25.1 26 78.9 22 3 37.4
15:15 1021 30.15 850 25.1 25.5 78 23 3 37.3
15:20 1021 30.15 850 25.1 25.4 77.8 22 2.2 35.9
15:25 1021 30.15 850 25.1 25.9 78.6 21 2.1 35.7
15:30 1021 30.15 850 25.1 26.1 78.9 21 2.2 35.9
15:35 1021 30.15 850 25.1 26 78.7 22 2.7 36.9
15:40 1021 30.15 850 25.1 26.1 79 22 2.8 37.1
15:45 1021 30.15 850 25.1 26.2 79.1 22 3.3 38
15:50 1021 30.15 850 25.1 26.1 79 21 2.6 36.8
15:55 1021 30.15 850 25.1 25.7 78.3 22 2.5 36.5
16:00 1021 30.15 850 25.1 25.8 78.5 21 2.4 36.3
16:05 1021 30.15 850 25.1 25.9 78.6 22 2.7 36.8
16:10 1021 30.15 850 25.1 25.8 78.4 22 2.6 36.8
16:15 1021 30.15 850 25.1 25.7 78.2 22 2.7 36.9
16:20 1021 30.15 850 25.1 25.8 78.4 22 3 37.4
16:25 1021 30.15 850 25.1 25.6 78.2 21 2.3 36.1
16:30 1021 30.15 850 25.1 25.7 78.2 23 3 37.3
16:35 1021 30.15 850 25.1 25.8 78.4 22 2.5 36.5
16:40 1021 30.15 850 25.1 25.7 78.2 22 2.8 37.1
16:45 1021 30.15 850 25.1 25.3 77.5 21 1.9 35.5
16:50 1021 30.15 850 25.1 25.3 77.6 22 2.5 36.5
16:55 1021 30.15 850 25.1 25.2 77.3 23 2.7 36.9
17:00 1021 30.15 850 25.1 25.3 77.6 23 2.7 36.8
17:05 1021 30.15 850 25.1 25.3 77.6 22 2.3 36.1
17:10 1021 30.15 850 25.1 25.2 77.3 23 2.7 36.9
17:15 1021 30.15 850 25.1 24.9 76.9 23 2.8 37
17:20 1021 30.15 850 25.1 24.6 76.2 24 2.6 36.7
17:25 1021 30.15 850 25.1 24.4 75.9 24 2.9 37.2
17:30 1021 30.15 850 25.1 24.2 75.6 24 2.5 36.6
17:35 1021 30.15 850 25.1 24.1 75.3 24 2.6 36.6
17:40 1021 30.15 850 25.1 24 75.2 24 2.2 35.9
17:45 1021 30.15 850 25.1 23.9 75.1 24 2.6 36.7
17:50 1021 30.15 850 25.1 23.8 74.9 24 2 35.6
17:55 1021 30.15 850 25.1 23.7 74.7 24 2.1 35.8
18:00 1021 30.15 850 25.1 23.6 74.5 24 2.2 36
18:05 1021 30.15 850 25.1 23.5 74.4 25 2.8 37.1
18:10 1021 30.15 850 25.1 23.4 74.2 26 2.9 37.2
18:15 1021 30.15 850 25.1 23.3 73.9 26 2.7 36.8
18:20 1021 30.15 850 25.1 23.1 73.6 26 2.6 36.7
18:25 1021 30.15 850 25.1 23 73.4 27 3.1 37.6
18:30 1021 30.15 850 25.1 22.9 73.1 26 2.8 37
18:35 1021 30.15 850 25.1 22.7 72.8 27 2.9 37.3
18:40 1021 30.15 850 25.1 22.6 72.6 30 4.1 39.4
18:45 1021 30.15 851 25.13 22.2 71.9 35 6.2 43.2
18:50 1021 30.15 851 25.13 21.5 70.7 36 6.1 43
18:55 1021 30.15 851 25.13 20.7 69.2 40 6.6 43.9
19:00 1022 30.18 851 25.13 20.1 68.1 43 7.4 45.3
19:05 1022 30.18 851 25.13 19.7 67.4 45 7.5 45.5
19:10 1022 30.18 851 25.13 19.4 66.9 41 5.9 42.6
19:15 1022 30.18 851 25.13 19.4 66.9 40 5.7 42.2
19:20 1022 30.18 851 25.13 19.3 66.7 43 6.4 43.4
19:25 1022 30.18 851 25.13 19.1 66.3 44 6.5 43.8
19:30 1022 30.18 851 25.13 18.6 65.5 44 6.2 43.1
19:35 1022 30.18 851 25.13 18.1 64.5 44 5.8 42.5
19:40 1022 30.18 851 25.13 17.5 63.5 48 6.6 43.9
19:45 1022 30.18 851 25.13 16.6 61.9 51 6.7 44
19:50 1022 30.18 851 25.13 16.2 61.2 47 5.1 41.3
19:55 1022 30.18 851 25.13 16.7 62.1 45 4.8 40.6
20:00 1022 30.18 851 25.13 17.3 63.1 40 3.7 38.7
20:05 1022 30.18 851 25.13 17.8 64 50 7.3 45.2
20:10 1022 30.18 851 25.13 17.6 63.7 41 4.2 39.5
20:15 1022 30.18 851 25.13 17.4 63.3 40 3.9 39.1
20:20 1022 30.18 851 25.13 16.9 62.4 42 3.9 39
20:25 1022 30.18 851 25.13 16.9 62.5 42 4.1 39.4
20:30 1022 30.18 851 25.13 16.4 61.5 44 4.1 39.4
20:35 1022 30.18 851 25.13 15.8 60.5 45 4.1 39.3
20:40 1022 30.18 852 25.16 15.5 59.9 45 3.7 38.6
20:45 1022 30.18 852 25.16 15.7 60.2 41 2.7 36.8
20:50 1022 30.18 852 25.16 16.4 61.6 39 2.4 36.3
20:55 1023 30.21 852 25.16 16.9 62.3 38 2.7 36.9
21:00 1023 30.21 852 25.16 16.8 62.3 39 2.9 37.2
21:05 1023 30.21 852 25.16 16.4 61.6 41 3.2 37.8
21:10 1023 30.21 852 25.16 16.1 60.9 43 3.8 38.8
21:15 1023 30.21 852 25.16 15.9 60.6 42 3.2 37.7
21:20 1023 30.21 852 25.16 15.7 60.3 42 2.8 37.1
21:25 1023 30.21 852 25.16 15.7 60.3 42 3 37.4
21:30 1023 30.21 852 25.16 15.5 59.9 43 3.2 37.7
21:35 1023 30.21 852 25.16 15.3 59.5 44 3.2 37.7
21:40 1023 30.21 852 25.16 15.1 59.3 44 3 37.4
21:45 1023 30.21 852 25.16 15.2 59.4 44 3.1 37.5
21:50 1023 30.21 852 25.16 15.2 59.4 44 3.1 37.6
21:55 1023 30.21 852 25.16 15.4 59.8 42 2.8 37.1
22:00 1023 30.21 852 25.16 15.7 60.3 43 3.4 38
22:05 1023 30.21 852 25.16 15.8 60.5 42 3 37.4
22:10 1023 30.21 852 25.16 15.6 60 43 3.2 37.7
22:15 1023 30.21 852 25.16 15.6 60.1 42 2.9 37.3
22:20 1023 30.21 852 25.16 15.7 60.2 46 4.1 39.4
22:25 1023 30.21 852 25.16 15.4 59.7 44 3.2 37.8
22:30 1023 30.21 852 25.16 15.4 59.7 43 3 37.4
22:35 1023 30.21 852 25.16 15.3 59.6 44 3.2 37.8
22:40 1023 30.21 852 25.16 15.2 59.4 44 3 37.4
22:45 1023 30.21 852 25.16 15.2 59.4 43 2.9 37.2
22:50 1023 30.21 852 25.16 15.2 59.4 44 3.2 37.7
22:55 1023 30.21 852 25.16 15 58.9 44 3 37.5
23:00 1023 30.21 852 25.16 15 59 44 3 37.5
23:05 1023 30.21 852 25.16 15 59 45 3.2 37.7
23:10 1023 30.21 852 25.16 14.9 58.8 46 3.4 38.1
23:15 1023 30.21 852 25.16 14.9 58.8 44 3 37.3
23:20 1023 30.21 852 25.16 14.9 58.8 45 3.2 37.8
23:25 1023 30.21 852 25.16 14.7 58.4 46 3.2 37.8
23:30 1023 30.21 852 25.16 14.6 58.3 46 3.2 37.8
23:35 1023 30.21 852 25.16 14.6 58.4 46 3.1 37.6
23:40 1023 30.21 852 25.16 14.6 58.3 46 3.1 37.7
23:45 1023 30.21 852 25.16 14.6 58.3 46 3.3 37.9
23:50 1023 30.21 853 25.19 14.4 57.9 47 3.3 38
23:55 1023 30.21 853 25.19 14.3 57.8 47 3.3 37.9
24:00 1023 30.21 853 25.19 14.4 57.9 47 3.2 37.8